• Join FlightAware (Why Join?)
  • Login
  • US Flag 
12:22PM EST


 

Airport Tracker/Info


-or-


 

Live Flight TrackerFlight Track Log ✈ UAL3776 ✈ 22-Apr-2013 ✈ KIAD - KRDU

Flight Track Log - Related Links

Times and Time Zones

All times are in EDT time to prevent confusion due to time zone crossing. See the UAL3776 flight status page for this flight to view local times or setup timezone preferences in your user account.

Time Position Orientation Groundspeed Altitude Reporting Facility
EDT Latitude Longitude Course Direction KTS MPH feet Rate Location/Type
03:46PM 38.8667 -77.5333 180° South 246 283 5,100  Level Potomac TRACON
03:48PM 38.6869 -77.5517 185° South 268 308 11,700 2,280 Climbing Washington Center
03:49PM 38.4518 -77.6823 185° South  Level Estimated
03:49PM 38.5908 -77.5572 183° South 307 353 13,100  Level Washington Center
03:50PM 38.3526 -77.7264 218° Southwest  Level Estimated
03:50PM 38.4864 -77.5650 183° South 350 403 14,800  Level Washington Center
03:51PM 38.3797 -77.5861 189° South 376 433 16,800 1,740 Climbing Washington Center
03:52PM 38.2867 -77.6631 213° Southwest 376 433 18,300 1,740 Climbing Washington Center
03:53PM 38.1978 -77.7425 215° Southwest 386 444 20,300 1,740 Climbing Washington Center
03:54PM 38.1044 -77.8217 214° Southwest 405 466 21,800 840 Climbing Washington Center
03:55PM 37.9986 -77.9053 212° Southwest 402 463 22,000 60 Climbing Washington Center
03:56PM 37.9033 -77.9867 214° Southwest 412 474 22,000  Level Washington Center
03:57PM 37.8078 -78.0703 215° Southwest 412 474 22,000  Level Washington Center
03:58PM 37.7142 -78.1514 214° Southwest 418 481 22,000  Level Washington Center
03:59PM 37.6208 -78.2319 214° Southwest 418 481 22,000  Level Washington Center
04:00PM 37.5231 -78.3125 213° Southwest 418 481 22,000  Level Washington Center
04:01PM 37.4272 -78.3928 214° Southwest 418 481 22,000 -300 Level Washington Center
04:02PM 37.3256 -78.4594 208° Southwest 418 481 21,500 -840 Descending Washington Center
04:03PM 37.2200 -78.5131 202° Southwest 418 481 20,400 -1,260 Descending Washington Center
04:04PM 37.1250 -78.5614 202° Southwest 412 474 19,000 -1,260 Descending Washington Center
04:05PM 37.0214 -78.6147 202° Southwest 412 474 17,900 -1,320 Descending Washington Center
04:06PM 36.9178 -78.6678 202° Southwest 412 474 16,400 -1,500 Descending Washington Center
04:07PM 36.8164 -78.7183 202° Southwest 402 463 15,000 -1,500 Descending Washington Center
04:08PM 36.7064 -78.7758 203° Southwest 397 457 13,500 -1,500 Descending Washington Center
04:09PM 36.6069 -78.8289 203° Southwest 381 438 12,200 -1,380 Descending Washington Center
04:10PM 36.5347 -78.8672 203° Southwest 377 434 11,200 -1,140 Descending Washington Center
04:10PM 36.5072 -78.8817 203° Southwest 392 451 11,000 -1,080 Descending Washington Center
04:11PM 36.4228 -78.9219 201° Southwest 373 429 10,000 -660 Descending Washington Center
04:12PM 36.3558 -78.9242 182° South 359 413 10,000 60 Level Washington Center
04:12PM 36.3144 -78.9122 167° South 356 410 10,100  Climbing Washington Center
04:13PM 36.2586 -78.8994 170° South 359 413 10,000 -300 Descending Washington Center
04:13PM 36.2233 -78.8850 162° South 343 395 9,800 -1,020 Descending Washington Center
04:14PM 36.1736 -78.8753 171° South 272 313 8,900 -1,140 Descending Washington Center
04:14PM 36.1489 -78.8639 160° South 303 349 8,700 -900 Descending Washington Center
04:15PM 36.0992 -78.8542 171° South 235 270 8,000 -600 Descending Washington Center
04:15PM 36.0867 -78.8486 160° South 266 306 8,100  Climbing Washington Center
04:16PM 36.0411 -78.8414 173° South 212 244 8,000  Descending Washington Center
04:16PM 36.0244 -78.8408 178° South 242 278 8,100 -120 Climbing Washington Center
04:17PM 35.9783 -78.8467 186° South 226 260 7,900 -540 Descending Washington Center
04:17PM 35.9636 -78.8536 201° Southwest 228 262 7,600 -1,200 Descending Washington Center
04:18PM 35.9272 -78.8856 215° Southwest 233 268 6,800 -1,020 Descending Washington Center
04:18PM 35.9142 -78.9006 223° Southwest 224 258 6,600 -720 Descending Washington Center
04:19PM 35.8819 -78.9400 225° Southwest 224 258 6,000 -480 Descending Washington Center
04:20PM 35.8386 -78.9919 224° Southwest 229 264 5,900 -660 Descending Washington Center
04:21PM 35.7844 -79.0614 226° Southwest 229 264 4,700 -1,080 Descending Washington Center
04:22PM 35.7331 -79.0361 158° South 208 239 3,500 -840 Descending Washington Center
04:23PM 35.7219 -78.9819 104° East 182 209 3,100 -300 Descending Washington Center
04:24PM 35.7650 -78.9378 40° Northeast 187 215 3,000 -300 Descending Washington Center
04:25PM 35.7975 -78.8981 45° Northeast 176 203 2,500 -720 Descending Washington Center
04:26PM 35.8256 -78.8633 45° Northeast 150 173 1,700 -900 Descending Washington Center